TNCS/SAB METAR and TAF weather

Enter ICAO airport designator
Station Type Date Time Source
TNCS METAR 2011/12/30 06:00 UTC NOAA

TNCS 300600Z 09014KT 9999 SCT016 27/23 Q1013 A2993


Station Type Date Time Source
TNCS Decoded METAR 2011/12/30 06:00 UTC NOAA

Station name not available
Dec 30, 2011 - 01:00 AM EST / 2011.12.30 0600 UTC
Wind: from the E (090 degrees) at 16 MPH (14 KT):0
Visibility: greater than 7 mile(s):0
Sky conditions: partly cloudy
Temperature: 80 F (27 C)
Dew Point: 73 F (23 C)
Relative Humidity: 78%
Pressure (altimeter): 29.93 in. Hg (1013 hPa)
ob: TNCS 300600Z 09014KT 9999 SCT016 27/23 Q1013 A2993
cycle: 6

Station Type Date Time Source
TNCS TAF UTC NOAA

Error!


Example: see airport list